Latest Weather Observations for Mudgee

IDN60801

Issued at 7:05 pm EDT Sunday 26 October 2014 (issued every 30 minutes, with the page automatically refreshed every 10 minutes)

About weather observations | Map of weather stations | Latest weather observations for NSW | Other Formats
Station Details ID: 062101 Name: MUDGEE AIRPORT AWS Lat: -32.56 Lon: 149.61 Height: 471.0 m
Data from the previous 72 hours. | See also: Recent months at Mudgee
Date/Time
EDT
Temp
°C
App
Temp
°C
Dew
Point
Rel
Hum
%
Delta-T
°C
Wind Press
QNH
hPa
Press
MSL
hPa
Rain
since 9 am
mm
Dir
 
Spd
km/h
Gust
km/h
Spd
kts
Gust
kts
26/07:00pm 29.1 25.7 5.9 23 12.5 SSW 13 20 7 11 1011.9 1011.0 0.0
26/06:30pm 30.7 25.1 5.2 20 13.7 SSW 24 35 13 19 1011.6 1010.7 0.0
26/06:00pm 32.4 26.9 4.2 17 15.0 WSW 22 30 12 16 1011.2 1010.3 0.0
26/05:30pm 33.3 26.7 2.2 14 16.1 WSW 26 33 14 18 1010.7 1009.7 0.0
26/05:00pm 33.6 26.5 1.4 13 16.5 W 28 39 15 21 1010.4 1009.4 0.0
26/04:30pm 34.1 25.7 1.8 13 16.7 W 35 46 19 25 1010.4 1009.4 0.0
26/04:00pm 34.4 27.6 3.1 14 16.6 W 28 35 15 19 1010.2 1009.3 0.0
26/03:30pm 34.0 27.5 4.6 16 15.9 W 28 35 15 19 1010.5 1009.5 0.0
26/03:00pm 33.8 27.1 3.6 15 16.0 W 28 37 15 20 1010.6 1009.6 0.0
26/02:30pm 34.2 26.8 3.9 15 16.2 WSW 32 52 17 28 1011.0 1010.1 0.0
26/02:26pm 34.0 27.5 4.6 16 15.9 WSW 28 50 15 27 1011.0 1010.1 0.0
26/02:00pm 33.4 26.0 4.2 16 15.6 W 32 44 17 24 1011.6 1010.7 0.0
26/01:30pm 33.0 26.2 7.1 20 14.5 W 32 44 17 24 1012.1 1011.2 0.0
26/01:00pm 32.6 25.6 6.0 19 14.6 WSW 32 41 17 22 1012.3 1011.4 0.0
26/12:30pm 32.9 26.2 5.5 18 14.9 W 30 43 16 23 1012.5 1011.6 0.0
26/12:00pm 32.6 25.3 4.4 17 15.1 W 32 39 17 21 1012.7 1011.7 0.0
26/11:30am 31.9 25.1 3.0 16 15.0 W 28 41 15 22 1013.0 1012.1 0.0
26/11:00am 30.9 25.8 6.0 21 13.5 WNW 22 32 12 17 1013.3 1012.4 0.0
26/10:30am 30.2 25.9 8.0 25 12.4 NW 20 30 11 16 1013.6 1012.7 0.0
26/10:00am 28.7 24.9 8.9 29 11.2 NW 19 22 10 12 1013.9 1013.0 0.0
26/09:30am 26.7 24.2 8.2 31 10.2 N 11 20 6 11 1014.2 1013.3 0.0
26/09:00am 24.6 23.7 10.5 41 8.0 N 6 11 3 6 1014.6 1013.8 0.2
26/08:30am 21.6 21.9 11.0 51 6.0 CALM 0 0 0 0 1014.6 1013.8 0.2
26/08:00am 18.0 17.6 9.9 59 4.4 SSW 2 9 1 5 1014.5 1013.6 0.2
26/07:30am 16.2 16.2 9.8 66 3.4 CALM 0 0 0 0 1014.4 1013.5 0.2
26/07:00am 12.9 10.9 8.8 76 2.1 NNE 9 13 5 7 1014.2 1013.3 0.2
26/06:30am 12.4 10.4 8.7 78 1.9 NE 9 11 5 6 1014.1 1013.2 0.2
26/06:00am 13.3 12.6 8.4 72 2.5 ENE 2 7 1 4 1013.9 1013.0 0.2
26/05:30am 13.7 13.5 9.2 74 2.3 CALM 0 0 0 0 1013.8 1012.9 0.2
26/05:00am 13.7 12.3 8.7 72 2.6 NNE 6 9 3 5 1013.5 1012.6 0.2
26/04:30am 14.7 14.4 8.6 67 3.2 CALM 0 0 0 0 1013.5 1012.6 0.2
26/04:00am 16.1 15.7 8.1 59 4.1 CALM 0 0 0 0 1013.5 1012.6 0.2
26/03:30am 18.1 16.2 8.9 55 4.9 ESE 9 11 5 6 1013.7 1012.8 0.2
26/03:00am 17.0 16.6 8.4 57 4.5 SSE 0 0 0 0 1014.0 1013.1 0.2
26/02:30am 19.4 18.7 8.7 50 5.7 SSE 2 6 1 3 1014.3 1013.4 0.2
26/02:00am 19.7 19.3 8.4 48 6.0 S 0 0 0 0 1015.0 1014.1 0.2
26/01:30am 20.3 19.6 8.6 47 6.3 NE 2 6 1 3 1015.3 1014.4 0.2
26/01:00am 23.3 22.1 8.2 38 8.2 ESE 4 9 2 5 1015.8 1014.9 0.2
26/12:30am 24.7 20.5 8.2 35 9.0 ENE 20 24 11 13 1016.3 1015.4 0.2
26/12:00am 23.4 19.6 9.0 40 7.9 NE 19 24 10 13 1017.2 1016.3 0.2
 
Date/Time
EDT
Temp
°C
App
Temp
°C
Dew
Point
Rel
Hum
%
Delta-T
°C
Wind Press
QNH
hPa
Press
MSL
hPa
Rain
since 9 am
mm
Dir
 
Spd
km/h
Gust
km/h
Spd
kts
Gust
kts
25/11:30pm 23.3 21.1 9.3 41 7.7 NNE 11 17 6 9 1017.7 1016.8 0.2
25/11:00pm 24.9 22.5 8.8 36 8.9 SW 11 15 6 8 1018.4 1017.6 0.2
25/10:30pm 22.1 18.4 9.6 45 6.9 WSW 19 20 10 11 1017.0 1016.2 0.2
25/10:00pm 21.8 20.9 9.3 45 6.8 N 4 9 2 5 1016.3 1015.4 0.2
25/09:30pm 22.7 21.1 8.0 39 7.9 N 6 9 3 5 1016.4 1015.5 0.2
25/09:00pm 23.7 22.0 8.5 38 8.3 ENE 7 9 4 5 1015.9 1015.0 0.2
25/08:30pm 23.6 22.9 8.5 38 8.2 NW 2 7 1 4 1015.5 1014.6 0.2
25/08:00pm 25.6 24.2 7.2 31 9.9 ENE 4 9 2 5 1015.1 1014.2 0.2
25/07:30pm 27.9 26.2 6.1 25 11.7 ESE 4 7 2 4 1014.7 1013.9 0.2
25/07:00pm 30.5 29.4 5.0 20 13.6 CALM 0 0 0 0 1014.5 1013.6 0.2
25/06:30pm 31.7 28.9 5.3 19 14.2 WNW 9 11 5 6 1014.5 1013.6 0.2
25/06:00pm 31.9 28.6 4.6 18 14.6 W 11 15 6 8 1014.5 1013.6 0.2
25/05:30pm 31.9 27.2 6.2 20 14.1 NW 20 32 11 17 1014.7 1013.9 0.2
25/05:00pm 30.7 23.9 5.2 20 13.6 WNW 30 39 16 21 1015.0 1014.1 0.2
25/04:41pm 30.9 22.8 5.3 20 13.7 W 37 44 20 24 1015.0 1014.1 0.2
25/04:38pm 31.3 24.8 4.9 19 14.1 WSW 28 52 15 28 1014.9 1014.0 0.2
25/04:30pm 32.0 26.6 4.7 18 14.6 WSW 22 32 12 17 1014.5 1013.6 0.2
25/04:00pm 33.0 28.1 3.9 16 15.4 SSW 19 24 10 13 1014.4 1013.5 0.2
25/03:30pm 33.5 28.4 4.2 16 15.7 W 20 32 11 17 1014.7 1013.9 0.2
25/03:00pm 34.0 27.9 4.6 16 15.9 SW 26 35 14 19 1015.1 1014.2 0.2
25/02:30pm 33.3 28.2 4.1 16 15.6 SW 20 35 11 19 1015.6 1014.7 0.2
25/02:00pm 34.1 28.7 4.7 16 15.9 W 22 30 12 16 1015.7 1014.8 0.2
25/01:30pm 32.8 28.9 5.4 18 14.9 SW 15 30 8 16 1016.2 1015.3 0.2
25/01:00pm 32.7 28.8 5.3 18 14.8 SSE 15 26 8 14 1016.6 1015.8 0.2
25/12:30pm 31.7 27.8 5.3 19 14.2 WSW 15 28 8 15 1017.2 1016.3 0.2
25/12:00pm 31.8 30.2 8.1 23 13.4 SW 6 13 3 7 1017.6 1016.7 0.2
25/11:30am 30.5 29.0 8.3 25 12.5 S 6 9 3 5 1018.2 1017.3 0.2
25/11:00am 29.2 26.8 7.2 25 12.1 SSE 9 13 5 7 1018.5 1017.7 0.2
25/10:30am 28.1 25.7 6.8 26 11.5 SSE 9 15 5 8 1018.7 1017.9 0.2
25/10:00am 27.1 25.4 7.5 29 10.7 ESE 6 9 3 5 1018.8 1018.0 0.2
25/09:30am 24.6 23.9 10.1 40 8.2 WNW 4 9 2 5 1018.9 1018.1 0.0
25/09:00am 21.5 22.2 12.1 55 5.4 CALM 0 0 0 0 1018.8 1018.0 0.4
25/08:30am 18.8 19.5 12.1 65 3.8 CALM 0 2 0 1 1018.7 1017.9 0.4
25/08:00am 16.4 15.6 11.1 71 2.9 N 6 7 3 4 1018.4 1017.6 0.4
25/07:30am 13.4 12.6 11.1 86 1.2 NNE 6 9 3 5 1018.3 1017.5 0.4
25/07:00am 11.8 10.6 10.2 90 0.8 NNE 7 9 4 5 1018.2 1017.3 0.4
25/06:30am 11.8 12.0 10.5 92 0.7 CALM 0 0 0 0 1017.8 1016.9 0.4
25/06:00am 11.4 11.4 9.7 89 0.9 CALM 0 0 0 0 1017.5 1016.6 0.4
25/05:30am 11.4 9.7 10.0 91 0.7 NE 9 11 5 6 1016.9 1016.1 0.4
25/05:00am 11.1 9.4 10.0 93 0.6 NE 9 15 5 8 1016.5 1015.7 0.4
25/04:30am 10.9 9.5 9.5 91 0.7 NNE 7 9 4 5 1016.3 1015.4 0.4
25/04:00am 11.8 12.0 10.5 92 0.7 CALM 0 0 0 0 1016.1 1015.2 0.4
25/03:30am 13.4 12.9 12.0 91 0.8 ENE 6 7 3 4 1016.0 1015.1 0.4
25/03:00am 13.0 12.0 11.1 88 1.0 NE 7 9 4 5 1016.0 1015.1 0.4
25/02:30am 14.0 13.0 12.4 90 0.9 NE 9 11 5 6 1016.0 1015.1 0.4
25/02:00am 14.0 12.2 12.2 89 1.0 NE 13 15 7 8 1016.0 1015.1 0.2
25/01:30am 15.8 15.7 13.3 85 1.4 ENE 6 7 3 4 1016.1 1015.2 0.2
25/01:00am 15.7 15.8 12.8 83 1.6 NNW 4 11 2 6 1016.2 1015.3 0.2
25/12:30am 16.1 14.5 12.8 81 1.9 NNE 13 13 7 7 1016.1 1015.2 0.2
25/12:00am 17.9 18.6 13.4 75 2.6 ESE 2 7 1 4 1016.2 1015.3 0.2
 
Date/Time
EDT
Temp
°C
App
Temp
°C
Dew
Point
Rel
Hum
%
Delta-T
°C
Wind Press
QNH
hPa
Press
MSL
hPa
Rain
since 9 am
mm
Dir
 
Spd
km/h
Gust
km/h
Spd
kts
Gust
kts
24/11:30pm 18.2 18.8 14.3 78 2.3 WNW 4 15 2 8 1016.2 1015.3 0.2
24/11:00pm 20.3 20.4 14.0 67 3.7 NNE 6 13 3 7 1016.1 1015.2 0.2
24/10:30pm 21.3 21.3 14.2 64 4.2 SE 7 11 4 6 1016.1 1015.2 0.2
24/10:00pm 21.5 21.2 13.4 60 4.8 NNW 7 11 4 6 1016.0 1015.1 0.2
24/09:30pm 21.0 19.8 13.9 64 4.2 NNE 13 15 7 8 1015.8 1014.9 0.2
24/09:00pm 23.5 21.6 13.1 52 6.1 SSE 15 20 8 11 1015.5 1014.6 0.2
24/08:30pm 23.7 19.8 13.3 52 6.2 SW 26 48 14 26 1015.8 1014.9 0.2
24/08:17pm 26.4 21.4 10.9 38 8.9 SW 28 52 15 28 1015.3 1014.4 0.0
24/08:00pm 27.2 24.4 8.6 31 10.4 NNE 13 17 7 9 1013.4 1012.5 0.0
24/07:30pm 27.5 24.7 8.4 30 10.6 NNE 13 15 7 8 1013.2 1012.3 0.0
24/07:00pm 28.7 26.8 8.9 29 11.2 NNE 9 11 5 6 1013.3 1012.4 0.0
24/06:30pm 30.0 27.0 7.8 25 12.4 NNW 13 19 7 10 1013.5 1012.6 0.0
24/06:00pm 31.2 27.8 7.6 23 13.2 N 15 19 8 10 1013.5 1012.6 0.0
24/05:30pm 31.8 26.9 6.8 21 13.8 WNW 22 30 12 16 1013.7 1012.8 0.0
24/05:00pm 32.5 26.4 6.7 20 14.3 NW 28 39 15 21 1013.6 1012.7 0.0
24/04:44pm 32.6 26.5 6.7 20 14.4 NW 28 50 15 27 1013.7 1012.8 0.0
24/04:30pm 33.2 26.7 6.5 19 14.8 NW 30 44 16 24 1013.9 1013.0 0.0
24/04:05pm 34.0 28.4 8.6 21 14.6 NNW 28 48 15 26 1013.8 1012.9 0.0
24/04:00pm 33.1 26.9 7.9 21 14.3 NNW 30 41 16 22 1014.2 1013.3 0.0
24/03:36pm 32.5 26.4 6.7 20 14.3 NW 28 46 15 25 1014.5 1013.6 0.0
24/03:30pm 33.0 27.2 7.8 21 14.2 NNW 28 44 15 24 1014.6 1013.8 0.0
24/03:00pm 32.8 27.6 10.2 25 13.2 N 28 39 15 21 1015.3 1014.4 0.0
24/02:30pm 31.0 26.3 9.3 26 12.4 N 24 43 13 23 1015.8 1014.9 0.0
24/02:00pm 31.6 25.9 9.8 26 12.6 N 30 43 16 23 1016.5 1015.7 0.0
24/01:30pm 32.2 27.9 10.8 27 12.6 NNW 24 39 13 21 1017.0 1016.2 0.0
24/01:00pm 30.5 26.9 11.9 31 11.1 NNE 22 37 12 20 1017.7 1016.8 0.0
24/12:30pm 29.7 25.9 11.2 31 10.9 N 22 37 12 20 1018.3 1017.5 0.0
24/12:00pm 28.9 25.8 11.5 34 10.2 N 19 33 10 18 1019.1 1018.3 0.0
24/11:30am 27.9 24.8 11.5 36 9.6 N 19 32 10 17 1019.8 1018.9 0.0
24/11:00am 26.2 23.7 11.2 39 8.7 NNE 15 24 8 13 1020.5 1019.7 0.0
24/10:30am 24.8 22.4 11.4 43 7.7 NNE 15 24 8 13 1021.1 1020.3 0.0
24/10:00am 24.0 21.4 12.0 47 6.9 NE 17 22 9 12 1021.4 1020.6 0.0
24/09:30am 22.4 20.6 13.2 56 5.4 NE 15 22 8 12 1021.8 1020.9 0.0
24/09:00am 19.6 19.3 13.3 67 3.7 N 7 9 4 5 1021.7 1020.8 0.0
24/08:30am 18.6 18.0 13.5 72 3.0 ESE 9 15 5 8 1021.5 1020.7 0.0
24/08:00am 18.6 17.8 12.8 69 3.3 S 9 15 5 8 1021.4 1020.6 0.0
24/07:30am 17.9 18.7 12.6 71 3.0 CALM 0 4 0 2 1021.2 1020.4 0.0
24/07:00am 17.4 17.3 12.1 71 3.0 E 4 7 2 4 1021.2 1020.4 0.0
24/06:30am 16.8 17.4 11.9 73 2.7 CALM 0 0 0 0 1021.3 1020.5 0.0
24/06:00am 17.1 16.7 12.4 74 2.6 SE 6 11 3 6 1020.9 1020.1 0.0
24/05:30am 17.0 14.7 13.1 78 2.2 SSW 17 20 9 11 1021.3 1020.5 0.0
24/05:00am 17.2 16.3 12.7 75 2.6 S 9 13 5 7 1020.2 1019.4 0.0
24/04:30am 17.5 15.8 12.6 73 2.8 SSE 13 19 7 10 1020.4 1019.6 0.0
24/04:00am 16.7 13.2 11.0 69 3.1 SW 20 26 11 14 1020.9 1020.1 0.0
24/03:30am 17.7 15.9 10.8 64 3.8 ESE 11 17 6 9 1020.5 1019.7 0.0
24/03:00am 17.1 15.6 10.7 66 3.5 S 9 15 5 8 1020.9 1020.1 0.0
24/02:30am 16.5 14.2 10.4 67 3.3 NE 13 15 7 8 1019.8 1018.9 0.0
24/02:00am 16.6 16.3 10.2 66 3.5 S 2 7 1 4 1019.9 1019.0 0.0
24/01:30am 17.1 17.1 9.8 62 3.9 CALM 0 0 0 0 1019.7 1018.8 0.0
24/01:00am 17.3 16.9 9.7 61 4.1 WNW 2 7 1 4 1020.2 1019.4 0.0
24/12:30am 18.6 17.3 9.9 57 4.7 SE 7 11 4 6 1020.6 1019.8 0.0
24/12:00am 18.5 17.1 9.6 56 4.8 S 7 9 4 5 1020.7 1019.9 0.0
 
Date/Time
EDT
Temp
°C
App
Temp
°C
Dew
Point
Rel
Hum
%
Delta-T
°C
Wind Press
QNH
hPa
Press
MSL
hPa
Rain
since 9 am
mm
Dir
 
Spd
km/h
Gust
km/h
Spd
kts
Gust
kts
23/11:30pm 19.2 16.7 9.7 54 5.2 S 13 15 7 8 1021.4 1020.6 0.0
23/11:00pm 18.4 16.7 9.7 57 4.7 ENE 9 11 5 6 1021.1 1020.3 0.0
23/10:30pm 20.4 18.7 9.9 51 5.8 SSE 9 13 5 7 1021.2 1020.4 0.0
23/10:00pm 20.5 20.5 9.7 50 5.9 CALM 0 7 0 4 1020.7 1019.9 0.0
23/09:30pm 21.4 20.0 9.6 47 6.5 SE 7 9 4 5 1020.4 1019.6 0.0
23/09:00pm 22.0 19.6 9.9 46 6.7 S 13 17 7 9 1019.9 1019.0 0.0
23/08:30pm 22.5 19.7 10.0 45 7.0 S 15 19 8 10 1019.2 1018.4 0.0
23/08:00pm 23.6 22.0 8.8 39 8.1 S 7 11 4 6 1018.7 1017.9 0.0
23/07:30pm 25.3 22.1 8.3 34 9.3 SSE 15 24 8 13 1017.9 1017.0 0.0

Other Formats:

Comma delimited format used in spreadsheet applications
http://www.bom.gov.au/fwo/IDN60801/IDN60801.94727.axf

JavaScript Object Notation format (JSON) in row-major order
http://www.bom.gov.au/fwo/IDN60801/IDN60801.94727.json